Time;durP1;ratioP1;P1;durP2;ratioP2;P2;SDS_P1;SDS_P2;PMS_P1;PMS_P2;Temp;Humidity;BMP_temperature;BMP_pressure;BME280_temperature;BME280_humidity;BME280_pressure;Samples;Min_cycle;Max_cycle;Signal;HPM_P1;HPM_P2
2021/04/16 00:01:50;;;;;;;1.25;1.10;;;6.20;99.90;;;;;;5014992;28;20051;-79
2021/04/16 00:04:15;;;;;;;3.95;1.50;;;6.20;99.90;;;;;;5017163;28;21993;-79
2021/04/16 00:06:41;;;;;;;2.17;1.05;;;6.20;99.90;;;;;;5031913;28;20029;-79
2021/04/16 00:09:06;;;;;;;3.22;1.42;;;6.20;99.90;;;;;;5022506;28;20022;-79
2021/04/16 00:11:32;;;;;;;3.70;1.20;;;6.20;99.90;;;;;;5013552;28;20388;-78
2021/04/16 00:13:58;;;;;;;3.17;1.25;;;6.20;99.90;;;;;;5027266;28;20061;-79
2021/04/16 00:16:27;;;;;;;1.65;0.90;;;6.20;99.90;;;;;;5026810;28;20025;-79
2021/04/16 00:18:53;;;;;;;1.60;1.00;;;6.20;99.90;;;;;;5030973;28;20034;-78
2021/04/16 00:21:19;;;;;;;2.38;0.98;;;6.20;99.90;;;;;;5022454;28;20022;-78
2021/04/16 00:23:45;;;;;;;3.53;1.02;;;6.20;99.90;;;;;;5025166;28;20228;-79
2021/04/16 00:26:12;;;;;;;3.80;1.30;;;6.20;99.90;;;;;;5013611;28;20029;-79
2021/04/16 00:28:38;;;;;;;1.23;1.10;;;6.20;99.90;;;;;;5027480;28;20025;-79
2021/04/16 00:31:16;;;;;;;1.85;1.02;;;6.20;99.90;;;;;;5024575;28;20032;-79
2021/04/16 00:33:42;;;;;;;2.42;1.10;;;6.20;99.90;;;;;;5019709;28;20056;-79
2021/04/16 00:36:09;;;;;;;2.42;1.00;;;6.20;99.90;;;;;;5034779;28;20116;-79
2021/04/16 00:38:35;;;;;;;9.00;1.40;;;6.20;99.90;;;;;;5018389;28;20037;-79
2021/04/16 00:41:04;;;;;;;6.10;1.10;;;6.20;99.90;;;;;;5026122;28;20038;-79
2021/04/16 00:43:32;;;;;;;2.88;1.20;;;6.20;99.90;;;;;;5009712;28;20033;-79
2021/04/16 00:46:13;;;;;;;4.60;1.23;;;6.20;99.90;;;;;;5035571;28;20036;-79
2021/04/16 00:48:48;;;;;;;1.38;0.80;;;6.20;99.90;;;;;;5022401;28;20168;-79
2021/04/16 00:51:38;;;;;;;3.17;0.98;;;6.20;99.90;;;;;;5015352;28;20034;-79
2021/04/16 00:54:09;;;;;;;1.10;1.00;;;6.20;99.90;;;;;;5009776;28;20050;-79
2021/04/16 00:56:35;;;;;;;4.78;0.93;;;6.20;99.90;;;;;;5011343;28;20025;-79
2021/04/16 00:59:02;;;;;;;2.10;0.90;;;6.20;99.90;;;;;;5023503;28;20029;-79
2021/04/16 01:01:28;;;;;;;1.92;1.20;;;6.20;99.90;;;;;;5016410;28;20033;-79
2021/04/16 01:03:53;;;;;;;1.13;0.68;;;6.30;99.90;;;;;;5025061;28;20029;-79
2021/04/16 01:06:21;;;;;;;3.17;0.85;;;6.30;99.90;;;;;;5025743;28;20572;-78
2021/04/16 01:08:47;;;;;;;2.45;0.85;;;6.30;99.90;;;;;;5023857;28;20026;-78
2021/04/16 01:11:13;;;;;;;1.30;0.80;;;6.30;99.90;;;;;;5028828;28;20040;-78
2021/04/16 01:13:40;;;;;;;0.98;0.77;;;6.20;99.90;;;;;;5025177;28;20025;-78
2021/04/16 01:16:09;;;;;;;3.40;1.00;;;6.20;99.90;;;;;;5017802;28;20034;-79
2021/04/16 01:18:37;;;;;;;1.15;0.80;;;6.20;99.90;;;;;;5029220;28;20053;-79
2021/04/16 01:21:08;;;;;;;1.85;0.90;;;6.20;99.90;;;;;;5023075;28;20026;-79
2021/04/16 01:23:50;;;;;;;4.47;1.35;;;6.20;99.90;;;;;;5025993;28;20045;-79
2021/04/16 01:26:19;;;;;;;2.63;1.17;;;6.30;99.90;;;;;;5023290;28;20018;-79
2021/04/16 01:28:45;;;;;;;1.10;0.88;;;6.30;99.90;;;;;;5026840;28;20033;-79
2021/04/16 01:31:17;;;;;;;1.73;0.93;;;6.30;99.90;;;;;;5020424;28;20038;-78
2021/04/16 01:33:45;;;;;;;;;;;6.30;99.90;;;;;;5032186;28;20037;-78
2021/04/16 01:36:13;;;;;;;1.15;0.70;;;6.30;99.90;;;;;;5040646;28;20334;-79
2021/04/16 01:38:40;;;;;;;0.95;0.70;;;6.30;99.90;;;;;;5027307;28;20495;-78
2021/04/16 01:41:06;;;;;;;3.20;0.90;;;6.30;99.90;;;;;;5021460;28;20037;-78
2021/04/16 01:43:38;;;;;;;3.58;0.77;;;6.30;99.80;;;;;;5026170;28;20036;-78
2021/04/16 01:46:05;;;;;;;3.90;0.98;;;6.30;99.60;;;;;;5019206;28;20034;-79
2021/04/16 01:48:45;;;;;;;1.23;0.70;;;6.30;99.60;;;;;;5018061;28;20033;-78
2021/04/16 01:51:16;;;;;;;5.32;1.35;;;6.30;99.90;;;;;;5028622;28;20037;-78
2021/04/16 01:53:42;;;;;;;;;;;6.30;99.60;;;;;;5025160;28;20281;-79
2021/04/16 01:56:08;;;;;;;0.82;0.70;;;6.40;99.90;;;;;;5026748;28;20387;-78
2021/04/16 01:58:33;;;;;;;3.15;0.82;;;6.40;99.90;;;;;;5031492;28;20072;-79
2021/04/16 02:00:59;;;;;;;1.98;0.98;;;6.40;99.80;;;;;;5020923;28;20079;-78
2021/04/16 02:03:25;;;;;;;1.42;0.80;;;6.40;98.80;;;;;;5023905;28;20037;-78
2021/04/16 02:05:51;;;;;;;4.88;1.17;;;6.30;98.90;;;;;;5029651;28;20029;-78
2021/04/16 02:08:17;;;;;;;1.27;0.80;;;6.40;98.80;;;;;;5037000;28;20029;-78
2021/04/16 02:10:43;;;;;;;2.63;1.02;;;6.40;99.30;;;;;;5027235;28;20068;-79
2021/04/16 02:13:09;;;;;;;2.75;1.08;;;6.40;99.20;;;;;;5029008;28;20108;-78
2021/04/16 02:15:35;;;;;;;4.13;0.80;;;6.40;99.90;;;;;;5018534;28;20433;-79
2021/04/16 02:18:00;;;;;;;2.05;1.00;;;6.40;99.60;;;;;;5021807;28;20037;-79
2021/04/16 02:20:28;;;;;;;3.30;1.00;;;6.40;99.00;;;;;;5027902;28;20112;-78
2021/04/16 02:22:54;;;;;;;1.88;0.80;;;6.40;99.30;;;;;;5026104;28;20044;-78
2021/04/16 02:25:20;;;;;;;2.78;0.90;;;6.40;99.00;;;;;;5025829;28;20791;-78
2021/04/16 02:27:45;;;;;;;2.70;0.80;;;6.40;99.00;;;;;;5029754;28;20068;-78
2021/04/16 02:30:19;;;;;;;1.40;0.88;;;6.40;98.80;;;;;;5025505;28;20030;-78
2021/04/16 02:32:45;;;;;;;3.22;0.73;;;6.40;98.70;;;;;;5028562;28;20065;-79
2021/04/16 02:35:11;;;;;;;4.65;0.85;;;6.30;98.60;;;;;;5032412;28;20030;-78
2021/04/16 02:37:37;;;;;;;2.75;0.90;;;6.30;99.20;;;;;;5028268;28;20033;-78
2021/04/16 02:40:05;;;;;;;1.90;1.10;;;6.30;99.10;;;;;;5024135;28;20052;-78
2021/04/16 02:42:31;;;;;;;2.97;1.40;;;6.30;99.00;;;;;;5026361;28;20025;-78
2021/04/16 02:44:56;;;;;;;4.30;0.98;;;6.30;98.90;;;;;;5030845;28;20391;-78
2021/04/16 02:47:21;;;;;;;2.25;1.00;;;6.40;98.60;;;;;;5024378;28;20083;-79
2021/04/16 02:49:47;;;;;;;3.42;0.90;;;6.40;98.70;;;;;;5022377;28;20033;-78
2021/04/16 02:52:13;;;;;;;3.45;0.73;;;6.40;98.60;;;;;;5026279;28;20497;-78
2021/04/16 02:54:38;;;;;;;2.95;0.90;;;6.30;98.20;;;;;;5027368;28;20037;-78
2021/04/16 02:57:04;;;;;;;2.42;1.10;;;6.40;98.40;;;;;;5022797;28;20037;-78
2021/04/16 02:59:30;;;;;;;1.58;0.73;;;6.30;98.00;;;;;;5026444;28;20123;-78
2021/04/16 03:01:56;;;;;;;2.65;0.90;;;6.30;98.20;;;;;;5025318;28;20028;-79
2021/04/16 03:04:22;;;;;;;3.28;0.82;;;6.30;98.50;;;;;;5021108;28;20187;-79
2021/04/16 03:06:48;;;;;;;2.30;0.90;;;6.30;98.40;;;;;;5023941;28;20524;-78
2021/04/16 03:09:13;;;;;;;3.75;0.90;;;6.40;98.50;;;;;;5024346;28;20028;-78
2021/04/16 03:11:39;;;;;;;4.53;1.00;;;6.40;97.90;;;;;;5031381;28;20068;-78
2021/04/16 03:14:05;;;;;;;1.75;0.88;;;6.40;98.00;;;;;;5023216;28;20380;-78
2021/04/16 03:16:31;;;;;;;4.38;0.82;;;6.30;98.50;;;;;;5020889;28;20018;-78
2021/04/16 03:18:59;;;;;;;3.28;1.33;;;6.40;98.30;;;;;;5025186;28;20529;-78
2021/04/16 03:21:26;;;;;;;1.95;0.80;;;6.40;98.40;;;;;;5026091;28;20581;-78
2021/04/16 03:23:51;;;;;;;1.73;0.98;;;6.30;98.20;;;;;;5029610;28;20545;-78
2021/04/16 03:26:18;;;;;;;4.97;1.20;;;6.40;98.80;;;;;;5024899;28;20025;-78
2021/04/16 03:28:44;;;;;;;1.75;1.00;;;6.40;98.40;;;;;;5018973;28;20029;-78
2021/04/16 03:31:10;;;;;;;2.60;0.90;;;6.30;98.00;;;;;;4997536;28;20034;-78
2021/04/16 03:33:35;;;;;;;2.80;0.68;;;6.30;98.00;;;;;;5032582;28;20472;-78
2021/04/16 03:36:01;;;;;;;2.75;0.90;;;6.30;98.30;;;;;;5025138;28;20037;-78
2021/04/16 03:38:28;;;;;;;4.47;1.05;;;6.30;98.60;;;;;;5025655;28;20112;-78
2021/04/16 03:40:53;;;;;;;5.38;1.05;;;6.20;98.80;;;;;;5028120;28;20072;-79
2021/04/16 03:43:19;;;;;;;3.08;1.10;;;6.20;98.40;;;;;;5025948;28;20025;-78
2021/04/16 03:45:44;;;;;;;3.30;1.00;;;6.20;98.50;;;;;;5021894;28;20025;-78
2021/04/16 03:48:10;;;;;;;2.15;1.00;;;6.10;98.90;;;;;;5020433;28;20048;-78
2021/04/16 03:50:36;;;;;;;2.28;0.88;;;6.10;99.20;;;;;;5021811;28;20103;-78
2021/04/16 03:53:04;;;;;;;2.95;1.40;;;6.10;99.70;;;;;;5021671;28;20034;-78
2021/04/16 03:55:33;;;;;;;2.35;0.93;;;6.10;99.50;;;;;;5027345;28;20036;-78
2021/04/16 03:57:59;;;;;;;3.13;0.70;;;6.10;99.50;;;;;;5015870;28;20072;-78
2021/04/16 04:00:30;;;;;;;4.18;1.02;;;6.10;99.30;;;;;;5024957;28;20472;-78
2021/04/16 04:02:56;;;;;;;6.10;1.13;;;6.20;99.50;;;;;;5027169;28;20048;-78
2021/04/16 04:05:22;;;;;;;1.98;1.35;;;6.20;99.50;;;;;;5027120;28;20026;-78
2021/04/16 04:07:47;;;;;;;1.00;0.85;;;6.20;99.40;;;;;;5008857;28;20124;-78
2021/04/16 04:10:16;;;;;;;1.08;0.85;;;6.20;99.30;;;;;;5026119;28;20119;-78
2021/04/16 04:12:42;;;;;;;3.63;0.95;;;6.20;99.10;;;;;;5023518;28;20033;-78
2021/04/16 04:15:08;;;;;;;2.70;0.90;;;6.20;99.40;;;;;;5021061;28;20037;-78
2021/04/16 04:17:35;;;;;;;2.70;0.70;;;6.20;99.50;;;;;;5017892;28;20091;-78
2021/04/16 04:20:03;;;;;;;2.20;0.90;;;6.10;99.30;;;;;;5027917;28;20033;-78
2021/04/16 04:22:29;;;;;;;2.88;0.95;;;6.20;99.50;;;;;;5015253;28;20025;-78
2021/04/16 04:24:54;;;;;;;2.35;1.08;;;6.10;99.60;;;;;;5027212;28;20026;-78
2021/04/16 04:27:20;;;;;;;2.30;0.80;;;6.20;99.40;;;;;;5024431;28;20582;-78
2021/04/16 04:29:46;;;;;;;3.75;1.35;;;6.20;99.90;;;;;;5019829;28;20041;-78
2021/04/16 04:32:12;;;;;;;11.35;5.53;;;6.20;99.90;;;;;;5016411;28;20151;-78
2021/04/16 04:34:39;;;;;;;10.82;4.97;;;6.20;99.50;;;;;;5020096;28;20034;-78
2021/04/16 04:37:06;;;;;;;6.28;3.10;;;6.20;99.20;;;;;;5025045;28;20511;-79
2021/04/16 04:39:40;;;;;;;4.35;1.83;;;6.30;99.70;;;;;;5026203;28;20384;-78
2021/04/16 04:42:06;;;;;;;6.32;2.33;;;6.30;99.80;;;;;;5030841;28;20079;-78
2021/04/16 04:44:32;;;;;;;6.05;3.40;;;6.30;99.80;;;;;;5023140;28;20033;-79
2021/04/16 04:46:57;;;;;;;3.45;1.92;;;6.30;99.40;;;;;;5030573;28;20028;-78
2021/04/16 04:49:23;;;;;;;5.80;2.72;;;6.30;99.50;;;;;;5031052;28;20032;-78
2021/04/16 04:51:50;;;;;;;5.38;2.22;;;6.30;99.70;;;;;;5028609;28;20132;-78
2021/04/16 04:54:17;;;;;;;7.75;3.95;;;6.30;99.50;;;;;;5032071;28;20037;-78
2021/04/16 04:56:42;;;;;;;4.05;2.42;;;6.30;99.80;;;;;;5014476;28;20125;-78
2021/04/16 04:59:08;;;;;;;7.85;3.97;;;6.30;99.70;;;;;;5021586;28;20116;-78
2021/04/16 05:01:36;;;;;;;5.88;1.65;;;6.40;99.70;;;;;;5020428;28;20456;-79
2021/04/16 05:04:05;;;;;;;4.88;1.05;;;6.40;99.60;;;;;;5032113;28;20017;-78
2021/04/16 05:06:31;;;;;;;2.72;1.10;;;6.40;99.50;;;;;;5019735;28;20035;-78
2021/04/16 05:08:56;;;;;;;6.85;1.45;;;6.40;99.60;;;;;;5025438;28;20108;-78
2021/04/16 05:11:22;;;;;;;2.55;1.08;;;6.50;99.60;;;;;;5027898;28;20270;-77
2021/04/16 05:13:54;;;;;;;2.35;1.10;;;6.50;99.90;;;;;;5019783;28;20030;-78
2021/04/16 05:16:19;;;;;;;2.22;1.02;;;6.50;99.40;;;;;;5031355;28;20029;-78
2021/04/16 05:18:47;;;;;;;6.15;1.02;;;6.50;99.50;;;;;;5019738;28;20025;-76
2021/04/16 05:21:13;;;;;;;7.15;2.15;;;6.50;99.50;;;;;;5025841;28;20148;-73
2021/04/16 05:23:39;;;;;;;1.80;1.30;;;6.60;99.40;;;;;;5017915;28;20546;-73
2021/04/16 05:26:04;;;;;;;7.10;2.90;;;6.60;99.30;;;;;;5026919;28;20033;-74
2021/04/16 05:28:30;;;;;;;3.42;1.48;;;6.60;99.20;;;;;;5028695;28;20026;-74
2021/04/16 05:30:55;;;;;;;3.95;2.08;;;6.60;99.10;;;;;;5029688;28;20017;-74
2021/04/16 05:33:20;;;;;;;3.20;1.45;;;6.60;99.20;;;;;;5026902;28;20341;-74
2021/04/16 05:35:46;;;;;;;4.00;1.58;;;6.60;99.40;;;;;;5011450;28;20037;-74
2021/04/16 05:38:11;;;;;;;7.82;2.33;;;6.60;99.00;;;;;;5029217;28;20029;-73
2021/04/16 05:40:37;;;;;;;4.57;1.10;;;6.70;99.10;;;;;;5025745;28;20026;-73
2021/04/16 05:43:02;;;;;;;2.25;1.42;;;6.70;99.30;;;;;;5019025;28;20707;-74
2021/04/16 05:45:28;;;;;;;7.13;1.33;;;6.70;99.60;;;;;;5024831;28;20117;-74
2021/04/16 05:47:53;;;;;;;2.00;1.10;;;6.70;98.90;;;;;;5019718;28;20026;-74
2021/04/16 05:50:19;;;;;;;4.65;1.23;;;6.80;99.10;;;;;;5025719;28;20064;-74
2021/04/16 05:52:45;;;;;;;3.17;1.33;;;6.90;99.10;;;;;;5019124;28;20445;-74
2021/04/16 05:55:12;;;;;;;2.63;1.25;;;7.00;98.60;;;;;;5023964;28;20080;-74
2021/04/16 05:57:38;;;;;;;3.40;1.40;;;7.10;98.50;;;;;;5029299;28;20037;-74
2021/04/16 06:00:06;;;;;;;2.08;1.08;;;7.10;98.80;;;;;;5030637;28;20759;-74
2021/04/16 06:02:35;;;;;;;4.57;1.25;;;7.20;98.10;;;;;;5032065;28;20112;-74
2021/04/16 06:05:02;;;;;;;2.08;0.90;;;7.20;97.40;;;;;;5030491;28;20032;-74
2021/04/16 06:07:31;;;;;;;2.22;0.93;;;7.20;97.40;;;;;;5016382;28;20033;-74
2021/04/16 06:09:59;;;;;;;1.83;1.00;;;7.20;97.50;;;;;;5020887;28;20029;-74
2021/04/16 06:12:25;;;;;;;2.35;0.90;;;7.30;97.90;;;;;;5026622;28;20068;-74
2021/04/16 06:14:51;;;;;;;1.85;0.95;;;7.30;97.60;;;;;;5021554;28;20507;-74
2021/04/16 06:17:18;;;;;;;4.45;1.10;;;7.30;97.60;;;;;;5029951;28;20067;-74
2021/04/16 06:19:49;;;;;;;3.28;1.08;;;7.40;97.20;;;;;;5028529;28;20057;-74
2021/04/16 06:22:16;;;;;;;2.47;1.05;;;7.40;97.10;;;;;;5031600;28;20033;-73
2021/04/16 06:24:45;;;;;;;3.45;1.20;;;7.40;96.90;;;;;;5029557;28;20499;-73
2021/04/16 06:27:11;;;;;;;1.52;0.90;;;7.40;96.70;;;;;;5030211;28;20029;-74
2021/04/16 06:29:36;;;;;;;2.80;1.30;;;7.40;96.80;;;;;;5019840;28;20032;-74
2021/04/16 06:32:02;;;;;;;1.42;0.82;;;7.50;97.10;;;;;;5024579;28;20029;-74
2021/04/16 06:34:28;;;;;;;2.67;0.98;;;7.50;97.10;;;;;;5028469;28;20542;-74
2021/04/16 06:36:53;;;;;;;1.85;1.10;;;7.50;97.20;;;;;;5028926;28;20029;-74
2021/04/16 06:39:20;;;;;;;1.95;0.90;;;7.50;97.20;;;;;;5028453;28;20025;-74
2021/04/16 06:41:48;;;;;;;3.65;1.10;;;7.60;97.10;;;;;;5027972;28;20555;-74
2021/04/16 06:44:16;;;;;;;1.88;1.00;;;7.60;97.10;;;;;;5041029;28;20025;-74
2021/04/16 06:46:44;;;;;;;2.70;0.85;;;7.70;96.80;;;;;;5025655;28;20021;-73
2021/04/16 06:49:18;;;;;;;2.33;1.00;;;7.70;96.90;;;;;;5023627;28;20033;-74
2021/04/16 06:51:57;;;;;;;8.05;1.00;;;7.90;96.80;;;;;;5039035;28;20030;-74
2021/04/16 06:54:27;;;;;;;2.38;1.10;;;7.90;96.40;;;;;;5024481;28;20037;-74
2021/04/16 06:56:53;;;;;;;1.88;1.00;;;8.00;96.50;;;;;;5019656;28;20033;-73
2021/04/16 06:59:25;;;;;;;1.70;0.90;;;8.00;96.30;;;;;;5010998;28;20037;-73
2021/04/16 07:01:57;;;;;;;3.13;1.00;;;8.00;95.80;;;;;;5015898;28;20507;-73
2021/04/16 07:04:53;;;;;;;2.05;0.90;;;8.10;96.30;;;;;;5024896;28;20041;-74
2021/04/16 07:07:39;;;;;;;2.80;1.08;;;8.20;95.90;;;;;;5020828;28;20077;-72
2021/04/16 07:10:29;;;;;;;3.22;1.30;;;8.20;95.90;;;;;;5015965;28;20033;-70
2021/04/16 07:12:57;;;;;;;2.65;1.10;;;8.20;95.70;;;;;;5026434;28;20088;-69
2021/04/16 07:15:44;;;;;;;3.10;1.27;;;8.20;95.90;;;;;;5027180;28;20021;-70
2021/04/16 07:18:17;;;;;;;2.67;1.05;;;8.30;95.40;;;;;;5028943;28;20037;-69
2021/04/16 07:20:43;;;;;;;4.40;1.13;;;8.30;94.80;;;;;;5028282;28;20029;-70
2021/04/16 07:23:08;;;;;;;4.88;1.30;;;8.20;95.10;;;;;;5029883;28;20021;-72
2021/04/16 07:25:45;;;;;;;1.75;0.90;;;8.20;95.10;;;;;;5037413;28;20033;-72
2021/04/16 07:28:47;;;;;;;1.60;1.05;;;8.20;94.80;;;;;;5011263;28;20030;-72
2021/04/16 07:31:29;;;;;;;;;;;8.20;94.90;;;;;;5011042;28;20034;-72
2021/04/16 07:33:57;;;;;;;2.95;0.85;;;8.30;95.50;;;;;;5038687;28;19921;-72
2021/04/16 07:36:25;;;;;;;1.67;0.95;;;8.30;94.70;;;;;;5035039;28;20446;-71
2021/04/16 07:39:04;;;;;;;2.10;0.93;;;8.40;95.20;;;;;;5025889;28;20339;-72
2021/04/16 07:41:37;;;;;;;4.20;1.40;;;8.40;95.10;;;;;;5022529;28;20045;-72
2021/04/16 07:44:03;;;;;;;2.03;1.00;;;8.50;94.50;;;;;;5021137;28;20396;-72
2021/04/16 07:46:29;;;;;;;1.40;0.90;;;8.60;94.60;;;;;;5017122;28;20021;-72
2021/04/16 07:49:17;;;;;;;4.28;1.20;;;8.60;94.40;;;;;;5021689;28;20048;-72
2021/04/16 07:51:46;;;;;;;1.88;0.90;;;8.80;94.60;;;;;;5026221;28;20037;-72
2021/04/16 07:54:24;;;;;;;2.10;0.95;;;8.90;94.20;;;;;;5027379;28;20050;-72
2021/04/16 07:57:05;;;;;;;2.28;1.15;;;9.00;94.10;;;;;;5025694;28;20040;-73
2021/04/16 07:59:31;;;;;;;3.45;1.20;;;9.20;93.30;;;;;;5021576;28;20030;-71
2021/04/16 08:01:56;;;;;;;3.65;1.25;;;9.20;92.90;;;;;;5022671;28;20037;-71
2021/04/16 08:04:33;;;;;;;2.15;1.10;;;9.30;92.30;;;;;;5023865;28;20109;-71
2021/04/16 08:07:16;;;;;;;1.88;0.98;;;9.40;92.30;;;;;;5023925;28;20025;-71
2021/04/16 08:09:42;;;;;;;2.40;1.10;;;9.50;91.90;;;;;;5021865;28;20038;-71
2021/04/16 08:12:07;;;;;;;3.45;1.23;;;9.50;90.90;;;;;;5030709;28;20025;-69
2021/04/16 08:14:35;;;;;;;4.93;1.30;;;9.50;91.30;;;;;;5023369;28;20030;-70
2021/04/16 08:17:14;;;;;;;1.20;0.90;;;9.40;90.90;;;;;;5028917;28;20033;-70
2021/04/16 08:19:40;;;;;;;3.28;1.00;;;9.30;91.00;;;;;;5023803;28;20048;-71
2021/04/16 08:22:12;;;;;;;2.28;1.10;;;9.40;91.80;;;;;;5020630;28;20108;-71
2021/04/16 08:24:59;;;;;;;3.78;1.40;;;9.50;92.30;;;;;;5026472;28;20480;-70
2021/04/16 08:27:45;;;;;;;2.08;1.05;;;9.60;91.80;;;;;;5022800;28;20125;-72
2021/04/16 08:30:33;;;;;;;3.63;1.13;;;9.70;90.60;;;;;;5020589;28;20117;-70
2021/04/16 08:33:16;;;;;;;4.20;1.63;;;9.80;90.20;;;;;;5013354;28;20053;-70
2021/04/16 08:35:48;;;;;;;5.43;1.55;;;9.80;90.00;;;;;;5041545;28;20479;-70
2021/04/16 08:38:18;;;;;;;2.00;1.02;;;9.80;90.30;;;;;;5026186;28;20235;-69
2021/04/16 08:40:52;;;;;;;3.22;1.30;;;9.90;90.90;;;;;;5013595;28;20434;-70
2021/04/16 08:43:31;;;;;;;1.42;0.93;;;10.00;90.00;;;;;;5021503;28;20380;-70
2021/04/16 08:45:59;;;;;;;5.80;1.40;;;10.10;89.00;;;;;;5019693;28;20033;-70
2021/04/16 08:48:37;;;;;;;3.53;0.98;;;10.10;87.40;;;;;;5029298;28;20033;-69
2021/04/16 08:51:12;;;;;;;3.00;1.35;;;10.20;86.60;;;;;;5029034;28;20033;-69
2021/04/16 08:53:40;;;;;;;3.30;1.20;;;10.30;87.70;;;;;;5020731;28;20060;-69
2021/04/16 08:56:22;;;;;;;3.40;0.80;;;10.30;85.80;;;;;;5026390;28;20029;-69
2021/04/16 08:58:49;;;;;;;1.90;1.10;;;10.40;86.40;;;;;;5014584;28;20052;-70
2021/04/16 09:01:29;;;;;;;2.20;1.00;;;10.40;85.70;;;;;;5024244;28;20555;-69
2021/04/16 09:04:11;;;;;;;3.03;0.93;;;10.50;85.20;;;;;;5020137;28;20500;-69
2021/04/16 09:06:37;;;;;;;2.88;0.93;;;10.50;85.40;;;;;;5022787;28;20052;-70
2021/04/16 09:09:05;;;;;;;5.13;0.98;;;10.60;85.80;;;;;;5024900;28;20072;-70
2021/04/16 09:11:46;;;;;;;2.22;1.02;;;10.70;86.90;;;;;;5020872;28;20041;-69
2021/04/16 09:14:34;;;;;;;2.53;1.27;;;10.80;83.70;;;;;;5022625;28;20049;-69
2021/04/16 09:17:04;;;;;;;1.55;1.00;;;10.90;81.50;;;;;;5013083;28;20276;-69
2021/04/16 09:19:30;;;;;;;2.83;1.23;;;11.00;82.00;;;;;;5017789;28;20477;-69
2021/04/16 09:22:02;;;;;;;1.25;0.80;;;11.10;80.70;;;;;;5023359;28;20087;-69
2021/04/16 09:24:54;;;;;;;1.75;0.85;;;11.10;79.30;;;;;;5021777;28;20025;-69
2021/04/16 09:27:25;;;;;;;2.88;0.93;;;11.00;79.60;;;;;;5024789;28;20475;-69
2021/04/16 09:30:40;;;;;;;3.75;1.10;;;10.90;80.00;;;;;;5021757;28;20091;-67
2021/04/16 09:33:22;;;;;;;4.00;0.95;;;10.90;79.50;;;;;;5018180;28;20029;-68
2021/04/16 09:35:54;;;;;;;;;;;11.00;80.70;;;;;;5026220;28;20644;-69
2021/04/16 09:38:23;;;;;;;2.90;0.90;;;11.10;78.20;;;;;;5020629;28;19919;-68
2021/04/16 09:41:20;;;;;;;3.25;1.00;;;11.20;79.00;;;;;;5013741;28;20451;-68
2021/04/16 09:43:53;;;;;;;2.85;1.00;;;11.30;77.90;;;;;;5013885;28;20136;-67
2021/04/16 09:46:26;;;;;;;2.33;0.70;;;11.30;76.10;;;;;;5025498;28;20030;-68
2021/04/16 09:48:53;;;;;;;3.90;0.90;;;11.30;76.50;;;;;;5019661;28;20041;-68
2021/04/16 09:51:32;;;;;;;1.15;0.95;;;11.40;75.40;;;;;;5027513;28;20033;-68
2021/04/16 09:54:07;;;;;;;3.00;1.00;;;11.40;75.60;;;;;;5021102;28;20128;-71
2021/04/16 09:56:33;;;;;;;9.00;1.23;;;11.40;75.60;;;;;;5026189;28;20148;-68
2021/04/16 09:59:41;;;;;;;1.38;1.10;;;11.50;74.70;;;;;;5023502;28;20035;-67
2021/04/16 10:02:12;;;;;;;4.78;1.30;;;11.60;73.60;;;;;;4965383;28;20031;-67
2021/04/16 10:04:58;;;;;;;4.18;1.30;;;11.60;74.60;;;;;;5010305;28;20372;-67
2021/04/16 10:07:36;;;;;;;2.72;1.33;;;11.70;74.00;;;;;;5024360;28;20034;-69
2021/04/16 10:10:07;;;;;;;2.00;1.02;;;11.90;73.00;;;;;;5027250;28;20037;-68
2021/04/16 10:12:34;;;;;;;1.75;1.02;;;12.00;70.60;;;;;;5024597;28;20124;-68
2021/04/16 10:15:20;;;;;;;4.75;1.05;;;12.10;71.00;;;;;;5024939;28;20091;-69
2021/04/16 10:18:00;;;;;;;4.38;1.75;;;12.10;72.20;;;;;;5020888;28;20477;-69
2021/04/16 10:20:29;;;;;;;4.28;1.38;;;12.20;72.10;;;;;;5021978;28;20079;-69
2021/04/16 10:23:03;;;;;;;2.95;1.27;;;12.40;70.40;;;;;;5026229;28;20480;-69
2021/04/16 10:26:51;;;;;;;3.25;1.00;;;12.50;71.20;;;;;;5025765;28;20437;-68
2021/04/16 10:32:42;;;;;;;1.83;1.00;;;12.90;69.50;;;;;;5020582;28;20136;-68
2021/04/16 10:38:49;;;;;;;1.88;0.80;;;12.90;66.60;;;;;;5018126;28;20579;-68
2021/04/16 10:51:15;;;;;;;4.22;1.80;;;13.30;64.20;;;;;;5029574;28;20037;-68
2021/04/16 10:54:24;;;;;;;2.40;1.30;;;13.40;65.00;;;;;;5019796;28;20081;-69
2021/04/16 10:57:00;;;;;;;2.38;1.30;;;13.40;63.70;;;;;;5027110;28;20034;-68
2021/04/16 11:04:26;;;;;;;3.83;1.75;;;13.70;64.90;;;;;;5016801;28;20044;-68
2021/04/16 12:38:36;;;;;;;3.78;1.20;;;19.80;40.20;;;;;;5031351;28;20048;-68
2021/04/16 12:41:06;;;;;;;2.63;1.67;;;19.80;40.80;;;;;;5016789;28;20029;-69
2021/04/16 12:43:32;;;;;;;3.55;1.05;;;19.80;41.80;;;;;;5021140;28;20033;-68
2021/04/16 12:45:58;;;;;;;2.95;0.98;;;19.70;41.50;;;;;;5029893;28;20079;-69
2021/04/16 12:48:24;;;;;;;2.45;1.48;;;19.60;43.10;;;;;;5018710;28;20477;-69
2021/04/16 12:50:51;;;;;;;4.43;1.30;;;19.40;42.60;;;;;;5036915;28;20131;-68
2021/04/16 12:53:17;;;;;;;1.73;1.08;;;19.50;41.50;;;;;;5033652;28;20099;-68
2021/04/16 12:55:45;;;;;;;2.45;1.20;;;19.90;41.80;;;;;;5038053;28;20035;-67
2021/04/16 12:58:19;;;;;;;2.28;1.20;;;20.10;40.00;;;;;;5020567;28;20025;-68
2021/04/16 13:00:47;;;;;;;3.88;1.10;;;20.10;40.00;;;;;;5024867;28;20048;-68
2021/04/16 13:03:26;;;;;;;2.78;0.85;;;20.20;39.50;;;;;;5026000;28;20052;-69
2021/04/16 13:05:54;;;;;;;2.50;1.30;;;20.30;39.70;;;;;;5018469;28;20428;-69
2021/04/16 13:08:19;;;;;;;2.08;0.90;;;20.10;39.30;;;;;;5040619;28;20025;-67
2021/04/16 13:10:45;;;;;;;1.42;1.20;;;20.30;38.80;;;;;;5039662;28;20036;-67
2021/04/16 13:13:11;;;;;;;2.67;1.08;;;20.70;38.60;;;;;;5022479;28;20041;-68
2021/04/16 13:15:36;;;;;;;3.90;1.10;;;20.90;37.10;;;;;;5032787;28;20033;-68
2021/04/16 13:18:21;;;;;;;1.52;0.70;;;21.10;36.90;;;;;;5032068;28;20114;-68
2021/04/16 13:20:48;;;;;;;1.00;0.90;;;22.30;35.40;;;;;;5030731;28;20819;-68
2021/04/16 13:23:14;;;;;;;1.30;0.70;;;22.90;34.00;;;;;;5031846;28;20025;-67
2021/04/16 13:25:40;;;;;;;2.03;1.13;;;22.20;33.50;;;;;;5022787;28;20034;-67
2021/04/16 13:28:05;;;;;;;2.55;0.90;;;21.40;36.40;;;;;;5026197;28;20030;-68
2021/04/16 13:30:34;;;;;;;4.53;1.08;;;20.90;37.60;;;;;;5015767;28;20500;-68
2021/04/16 13:33:04;;;;;;;1.85;1.00;;;20.70;37.30;;;;;;5016520;28;20128;-69
2021/04/16 13:35:35;;;;;;;1.27;0.98;;;21.00;39.20;;;;;;5021239;28;20033;-67
2021/04/16 13:38:05;;;;;;;2.42;1.20;;;21.60;37.40;;;;;;5023204;28;20021;-67
2021/04/16 13:40:32;;;;;;;5.07;1.00;;;22.40;35.90;;;;;;5028211;28;20542;-67
2021/04/16 13:42:58;;;;;;;1.42;0.85;;;23.00;36.20;;;;;;5020509;28;20377;-68
2021/04/16 13:45:24;;;;;;;2.65;1.10;;;23.70;34.60;;;;;;5028700;28;20029;-68
2021/04/16 13:47:49;;;;;;;3.70;1.20;;;24.30;33.30;;;;;;5023410;28;20025;-68
2021/04/16 13:50:16;;;;;;;3.40;1.08;;;24.80;33.30;;;;;;5015921;28;20547;-67
2021/04/16 13:52:43;;;;;;;3.45;1.00;;;25.10;31.00;;;;;;5021786;28;20103;-68
2021/04/16 13:55:12;;;;;;;1.65;1.00;;;24.90;30.50;;;;;;5019994;28;20095;-68
2021/04/16 13:57:37;;;;;;;2.22;1.00;;;23.90;31.90;;;;;;5018091;28;20022;-68
2021/04/16 14:00:06;;;;;;;2.28;1.20;;;23.30;34.40;;;;;;5019791;28;20028;-69
2021/04/16 14:02:35;;;;;;;2.05;0.80;;;23.10;33.80;;;;;;5023047;28;20396;-68
2021/04/16 14:05:07;;;;;;;0.98;0.80;;;22.40;32.80;;;;;;5023593;28;20067;-68
2021/04/16 14:07:33;;;;;;;2.35;0.98;;;21.60;35.60;;;;;;5022595;28;20042;-67
2021/04/16 14:09:59;;;;;;;2.80;1.05;;;21.50;36.50;;;;;;5023293;28;20067;-68
2021/04/16 14:12:24;;;;;;;1.70;1.10;;;22.10;36.30;;;;;;5020983;28;20021;-68
2021/04/16 14:14:50;;;;;;;4.15;1.08;;;22.80;35.00;;;;;;5023482;28;20087;-67
2021/04/16 14:17:20;;;;;;;1.08;0.80;;;23.60;33.10;;;;;;5017654;28;20074;-68
2021/04/16 14:19:56;;;;;;;2.70;1.10;;;24.10;32.60;;;;;;5025966;28;20400;-68
2021/04/16 14:22:26;;;;;;;1.85;1.10;;;24.30;32.00;;;;;;5016887;28;20276;-68
2021/04/16 14:24:52;;;;;;;1.07;0.93;;;23.90;32.60;;;;;;5021792;28;20037;-68
2021/04/16 14:27:17;;;;;;;2.78;1.10;;;23.10;32.10;;;;;;5017506;28;20014;-68
2021/04/16 14:29:43;;;;;;;3.50;1.35;;;22.00;35.00;;;;;;5023815;28;20084;-67
2021/04/16 14:32:11;;;;;;;2.22;1.20;;;21.60;35.60;;;;;;5022787;28;20108;-73
2021/04/16 14:34:38;;;;;;;4.10;1.50;;;21.30;35.10;;;;;;5006231;28;20033;-72
2021/04/16 14:37:04;;;;;;;4.00;1.17;;;21.60;36.90;;;;;;5023145;28;20435;-70
2021/04/16 14:39:29;;;;;;;1.30;1.20;;;22.10;36.00;;;;;;5024735;28;20033;-71
2021/04/16 14:41:57;;;;;;;2.53;1.33;;;22.40;34.00;;;;;;5023726;28;20022;-71
2021/04/16 14:44:24;;;;;;;4.10;1.20;;;22.70;33.70;;;;;;5024134;28;20503;-71
2021/04/16 14:46:50;;;;;;;3.63;1.55;;;23.40;34.00;;;;;;5029171;28;20078;-71
2021/04/16 14:49:24;;;;;;;2.80;1.17;;;23.90;33.20;;;;;;5027785;28;20123;-71
2021/04/16 14:51:50;;;;;;;3.53;1.20;;;24.50;32.10;;;;;;5026040;28;20029;-72
2021/04/16 14:54:26;;;;;;;4.10;2.13;;;24.90;30.00;;;;;;5031319;28;20530;-71
2021/04/16 14:56:52;;;;;;;1.95;1.00;;;25.00;29.80;;;;;;5029709;28;20045;-70
2021/04/16 14:59:26;;;;;;;2.08;1.20;;;25.20;30.00;;;;;;5023794;28;20037;-72
2021/04/16 15:01:54;;;;;;;4.50;1.15;;;25.10;29.00;;;;;;5021309;28;20099;-70
2021/04/16 15:04:20;;;;;;;2.78;1.38;;;24.50;29.90;;;;;;5023815;28;20400;-69